Etusivu
METAR-TAF:

METAR-TAF

Lentoasemat :

Biserta, Tunisia

Leveyspiiri: 37-15N, Pituuspiiri: 009-48E, korkeus merenpinnasta: 5 m

Tämänhetkinen sää

Tämä raportti tehtiin 51 minuuttia sitten, kello 04.00 UTC
Tuuli 4 kn lännestä/lounaasta
Lämpötila 14°C
Kosteus 94%
Ilmanpaine 1015 hPa
Näkyvyys 10 km tai enemmän
Hajanaisia pilviä 2000 ft:n korkeudessa

METAR: DTTB 310400Z 25004KT 9999 SCT020 14/13 Q1015

Aika: 05:51 (04:51 UTC)

Sääennuste

Tämä raportti tehtiin 1 tunti ja 51 minuuttia sitten, kello 03.00 UTC
Ennuste voimassa 31. päivästä klo 04 UTC - 31. päivään klo 13 UTC
Tuuli 4 kn lännestä/luoteesta
Näkyvyys 10 km tai enemmän
Muutamia pilviä 2000 ft:n korkeudessa

TAF: DTTB 310300Z 3104/3113 30004KT 9999 FEW020

Säähavainnot ja -ennusteet yli 4000 lentoasemalta (METAR- ja TAF-raportit).

Käytössä olevat sääasemat on merkitty karttaan keltaisilla ja punaisilla pisteillä.

Aseta hiiri pisteen päälle nähdäksesi sääaseman nimen.

Klikkaa sitten nähdäksesi säähavainnot ja -ennusteet.

Kartan vaihtaminen: klikkaa mustalla rastilla varustettuja vihreitä pisteitä, niin voit zoomata sisään; viivalla varustettua vihreää pistettä, niin voit zoomata ulos tai vihreitä nuolia, niin pääset viereisille kartoille.


METAR-TAF: